ePrivacy and GPDR Cookie Consent by Cookie Consent
EmailTwitter


Observations de surface / Royaume-Uni / EGLL (03772)

Régions: Québec | Canada | États-Unis | Europe | France | UK | Ailleurs
Station
Affichage
Infos & localisation pour EGLL (03772) | Aide pour décoder les METARs

Observations prises le 2022-12-05 à 15H20 UTC à LONDON/HEATHROW, UK (EGLL)

Etat du ciel: quelques nuages.

Température: 8.0 Celsius

Point de rosée: 5.0 Celsius

Humidité relative: 81%

Vents: Nord-est à 11 km/h ou 6 noeuds.

Pression au niveau moyen de la mer: 102.20 kilopascals.

Visibilité horizontale: 6.21 milles terrestres ou 9.94 kilomètres.

Observation METAR:

EGLL 051520Z AUTO 04006KT 360V070 9999 FEW017 08/05 Q1022 NOSIG=